sensor_id;sensor_type;location;lat;lon;timestamp;P1;durP1;ratioP1;P2;durP2;ratioP2
31210;SDS011;17836;50.948;3.946;2022-12-16T00:00:36;68.70;;;39.55;;
31210;SDS011;17836;50.948;3.946;2022-12-16T00:03:01;69.70;;;38.83;;
31210;SDS011;17836;50.948;3.946;2022-12-16T00:05:27;70.20;;;37.00;;
31210;SDS011;17836;50.948;3.946;2022-12-16T00:07:52;69.00;;;37.63;;
31210;SDS011;17836;50.948;3.946;2022-12-16T00:10:19;78.43;;;40.40;;
31210;SDS011;17836;50.948;3.946;2022-12-16T00:12:44;81.43;;;43.27;;
31210;SDS011;17836;50.948;3.946;2022-12-16T00:15:09;77.73;;;41.67;;
31210;SDS011;17836;50.948;3.946;2022-12-16T00:17:35;76.80;;;41.67;;
31210;SDS011;17836;50.948;3.946;2022-12-16T00:20:02;85.55;;;43.33;;
31210;SDS011;17836;50.948;3.946;2022-12-16T00:22:28;86.70;;;43.40;;
31210;SDS011;17836;50.948;3.946;2022-12-16T00:24:53;82.57;;;43.05;;
31210;SDS011;17836;50.948;3.946;2022-12-16T00:27:18;85.70;;;43.07;;
31210;SDS011;17836;50.948;3.946;2022-12-16T00:29:44;83.18;;;43.88;;
31210;SDS011;17836;50.948;3.946;2022-12-16T00:32:09;72.22;;;38.90;;
31210;SDS011;17836;50.948;3.946;2022-12-16T00:34:35;70.15;;;38.90;;
31210;SDS011;17836;50.948;3.946;2022-12-16T00:37:00;74.30;;;40.33;;
31210;SDS011;17836;50.948;3.946;2022-12-16T00:39:26;78.35;;;39.38;;
31210;SDS011;17836;50.948;3.946;2022-12-16T00:41:51;74.40;;;40.80;;
31210;SDS011;17836;50.948;3.946;2022-12-16T00:44:16;74.85;;;40.22;;
31210;SDS011;17836;50.948;3.946;2022-12-16T00:46:41;70.10;;;39.28;;
31210;SDS011;17836;50.948;3.946;2022-12-16T00:49:07;75.38;;;40.75;;
31210;SDS011;17836;50.948;3.946;2022-12-16T00:51:32;76.15;;;40.60;;
31210;SDS011;17836;50.948;3.946;2022-12-16T00:53:57;70.38;;;40.05;;
31210;SDS011;17836;50.948;3.946;2022-12-16T00:56:23;75.32;;;41.90;;
31210;SDS011;17836;50.948;3.946;2022-12-16T00:58:49;84.00;;;43.28;;
31210;SDS011;17836;50.948;3.946;2022-12-16T01:01:14;80.65;;;41.75;;
31210;SDS011;17836;50.948;3.946;2022-12-16T01:03:39;75.97;;;40.25;;
31210;SDS011;17836;50.948;3.946;2022-12-16T01:06:12;72.15;;;39.20;;
31210;SDS011;17836;50.948;3.946;2022-12-16T01:08:38;78.10;;;40.63;;
31210;SDS011;17836;50.948;3.946;2022-12-16T01:11:04;73.65;;;39.85;;
31210;SDS011;17836;50.948;3.946;2022-12-16T01:13:29;81.38;;;41.47;;
31210;SDS011;17836;50.948;3.946;2022-12-16T01:15:58;75.20;;;42.72;;
31210;SDS011;17836;50.948;3.946;2022-12-16T01:18:23;84.40;;;42.50;;
31210;SDS011;17836;50.948;3.946;2022-12-16T01:20:49;83.00;;;42.37;;
31210;SDS011;17836;50.948;3.946;2022-12-16T01:23:14;80.00;;;42.50;;
31210;SDS011;17836;50.948;3.946;2022-12-16T01:25:40;80.18;;;43.05;;
31210;SDS011;17836;50.948;3.946;2022-12-16T01:28:05;79.63;;;42.30;;
31210;SDS011;17836;50.948;3.946;2022-12-16T01:30:31;78.93;;;42.92;;
31210;SDS011;17836;50.948;3.946;2022-12-16T01:32:56;79.45;;;41.13;;
31210;SDS011;17836;50.948;3.946;2022-12-16T01:35:21;82.72;;;43.03;;
31210;SDS011;17836;50.948;3.946;2022-12-16T01:37:47;75.90;;;41.25;;
31210;SDS011;17836;50.948;3.946;2022-12-16T01:40:16;81.07;;;41.43;;
31210;SDS011;17836;50.948;3.946;2022-12-16T01:42:43;68.68;;;39.17;;
31210;SDS011;17836;50.948;3.946;2022-12-16T01:47:48;72.28;;;39.97;;
31210;SDS011;17836;50.948;3.946;2022-12-16T01:50:14;74.57;;;40.97;;
31210;SDS011;17836;50.948;3.946;2022-12-16T01:52:42;83.05;;;40.45;;
31210;SDS011;17836;50.948;3.946;2022-12-16T01:55:30;73.30;;;39.70;;
31210;SDS011;17836;50.948;3.946;2022-12-16T01:57:58;70.97;;;41.30;;
31210;SDS011;17836;50.948;3.946;2022-12-16T02:00:24;76.32;;;41.33;;
31210;SDS011;17836;50.948;3.946;2022-12-16T02:02:49;73.38;;;41.33;;
31210;SDS011;17836;50.948;3.946;2022-12-16T02:05:15;86.97;;;42.63;;
31210;SDS011;17836;50.948;3.946;2022-12-16T02:08:33;74.65;;;40.97;;
31210;SDS011;17836;50.948;3.946;2022-12-16T02:13:47;72.57;;;41.58;;
31210;SDS011;17836;50.948;3.946;2022-12-16T02:15:51;75.55;;;42.53;;
31210;SDS011;17836;50.948;3.946;2022-12-16T02:26:31;72.75;;;40.85;;
31210;SDS011;17836;50.948;3.946;2022-12-16T02:29:04;73.90;;;42.25;;
31210;SDS011;17836;50.948;3.946;2022-12-16T02:31:39;73.57;;;42.05;;
31210;SDS011;17836;50.948;3.946;2022-12-16T02:46:18;71.77;;;42.57;;
31210;SDS011;17836;50.948;3.946;2022-12-16T02:48:45;78.43;;;41.63;;
31210;SDS011;17836;50.948;3.946;2022-12-16T02:51:10;74.60;;;39.97;;
31210;SDS011;17836;50.948;3.946;2022-12-16T02:53:36;69.43;;;40.80;;
31210;SDS011;17836;50.948;3.946;2022-12-16T02:56:08;77.50;;;40.13;;
31210;SDS011;17836;50.948;3.946;2022-12-16T02:58:53;73.55;;;41.05;;
31210;SDS011;17836;50.948;3.946;2022-12-16T03:06:18;67.35;;;38.47;;
31210;SDS011;17836;50.948;3.946;2022-12-16T03:08:46;68.32;;;37.72;;
31210;SDS011;17836;50.948;3.946;2022-12-16T03:11:13;75.72;;;39.70;;
31210;SDS011;17836;50.948;3.946;2022-12-16T03:13:42;68.35;;;37.90;;
31210;SDS011;17836;50.948;3.946;2022-12-16T03:16:09;71.90;;;38.47;;
31210;SDS011;17836;50.948;3.946;2022-12-16T03:18:35;66.30;;;38.60;;
31210;SDS011;17836;50.948;3.946;2022-12-16T03:21:03;65.53;;;38.00;;
31210;SDS011;17836;50.948;3.946;2022-12-16T03:23:31;76.15;;;39.35;;
31210;SDS011;17836;50.948;3.946;2022-12-16T03:26:00;61.55;;;34.78;;
31210;SDS011;17836;50.948;3.946;2022-12-16T03:31:00;54.13;;;31.63;;
31210;SDS011;17836;50.948;3.946;2022-12-16T03:33:28;58.53;;;31.63;;
31210;SDS011;17836;50.948;3.946;2022-12-16T03:35:58;56.58;;;31.75;;
31210;SDS011;17836;50.948;3.946;2022-12-16T03:38:25;54.92;;;33.53;;
31210;SDS011;17836;50.948;3.946;2022-12-16T03:40:51;55.95;;;30.75;;
31210;SDS011;17836;50.948;3.946;2022-12-16T03:43:17;49.30;;;29.42;;
31210;SDS011;17836;50.948;3.946;2022-12-16T03:45:43;48.10;;;29.35;;
31210;SDS011;17836;50.948;3.946;2022-12-16T03:48:10;52.20;;;29.27;;
31210;SDS011;17836;50.948;3.946;2022-12-16T03:50:36;53.15;;;28.10;;
31210;SDS011;17836;50.948;3.946;2022-12-16T03:53:02;43.10;;;27.13;;
31210;SDS011;17836;50.948;3.946;2022-12-16T03:55:28;45.28;;;25.40;;
31210;SDS011;17836;50.948;3.946;2022-12-16T03:57:54;45.13;;;26.00;;
31210;SDS011;17836;50.948;3.946;2022-12-16T04:00:22;43.92;;;25.92;;
31210;SDS011;17836;50.948;3.946;2022-12-16T04:02:47;38.63;;;24.63;;
31210;SDS011;17836;50.948;3.946;2022-12-16T04:05:15;40.08;;;23.27;;
31210;SDS011;17836;50.948;3.946;2022-12-16T04:07:41;43.25;;;23.85;;
31210;SDS011;17836;50.948;3.946;2022-12-16T04:10:06;37.75;;;22.52;;
31210;SDS011;17836;50.948;3.946;2022-12-16T04:12:32;38.95;;;22.73;;
31210;SDS011;17836;50.948;3.946;2022-12-16T04:15:16;32.60;;;22.10;;
31210;SDS011;17836;50.948;3.946;2022-12-16T04:18:00;36.90;;;21.02;;
31210;SDS011;17836;50.948;3.946;2022-12-16T04:20:53;34.40;;;19.40;;
31210;SDS011;17836;50.948;3.946;2022-12-16T04:23:48;29.60;;;19.33;;
31210;SDS011;17836;50.948;3.946;2022-12-16T04:26:32;24.15;;;16.85;;
31210;SDS011;17836;50.948;3.946;2022-12-16T04:29:17;36.70;;;19.58;;
31210;SDS011;17836;50.948;3.946;2022-12-16T04:31:42;25.33;;;17.10;;
31210;SDS011;17836;50.948;3.946;2022-12-16T04:34:08;30.58;;;16.48;;
31210;SDS011;17836;50.948;3.946;2022-12-16T04:36:53;28.92;;;15.88;;
31210;SDS011;17836;50.948;3.946;2022-12-16T04:39:38;25.02;;;15.35;;
31210;SDS011;17836;50.948;3.946;2022-12-16T04:42:21;22.55;;;13.98;;
31210;SDS011;17836;50.948;3.946;2022-12-16T04:45:05;27.27;;;13.35;;
31210;SDS011;17836;50.948;3.946;2022-12-16T04:47:49;22.02;;;13.15;;
31210;SDS011;17836;50.948;3.946;2022-12-16T04:50:35;20.70;;;13.05;;
31210;SDS011;17836;50.948;3.946;2022-12-16T04:53:39;20.63;;;12.80;;
31210;SDS011;17836;50.948;3.946;2022-12-16T04:56:22;21.33;;;13.23;;
31210;SDS011;17836;50.948;3.946;2022-12-16T04:59:06;22.40;;;13.90;;
31210;SDS011;17836;50.948;3.946;2022-12-16T05:01:50;22.60;;;13.48;;
31210;SDS011;17836;50.948;3.946;2022-12-16T05:04:34;23.23;;;13.98;;
31210;SDS011;17836;50.948;3.946;2022-12-16T05:07:17;23.63;;;13.73;;
31210;SDS011;17836;50.948;3.946;2022-12-16T05:10:01;21.88;;;12.85;;
31210;SDS011;17836;50.948;3.946;2022-12-16T05:12:45;21.02;;;12.70;;
31210;SDS011;17836;50.948;3.946;2022-12-16T05:15:29;18.95;;;11.30;;
31210;SDS011;17836;50.948;3.946;2022-12-16T05:18:14;19.33;;;13.23;;
31210;SDS011;17836;50.948;3.946;2022-12-16T05:20:59;16.88;;;11.82;;
31210;SDS011;17836;50.948;3.946;2022-12-16T05:23:43;18.05;;;11.23;;
31210;SDS011;17836;50.948;3.946;2022-12-16T05:26:27;17.40;;;11.98;;
31210;SDS011;17836;50.948;3.946;2022-12-16T05:29:11;16.65;;;11.35;;
31210;SDS011;17836;50.948;3.946;2022-12-16T05:31:55;18.30;;;11.13;;
31210;SDS011;17836;50.948;3.946;2022-12-16T05:34:39;19.75;;;11.05;;
31210;SDS011;17836;50.948;3.946;2022-12-16T05:37:23;22.25;;;12.15;;
31210;SDS011;17836;50.948;3.946;2022-12-16T05:40:08;17.85;;;11.23;;
31210;SDS011;17836;50.948;3.946;2022-12-16T05:42:52;11.50;;;10.15;;
31210;SDS011;17836;50.948;3.946;2022-12-16T05:45:35;13.52;;;10.15;;
31210;SDS011;17836;50.948;3.946;2022-12-16T05:48:19;16.52;;;10.73;;
31210;SDS011;17836;50.948;3.946;2022-12-16T05:51:03;11.57;;;10.00;;
31210;SDS011;17836;50.948;3.946;2022-12-16T05:53:47;19.83;;;11.50;;
31210;SDS011;17836;50.948;3.946;2022-12-16T05:56:31;13.93;;;10.38;;
31210;SDS011;17836;50.948;3.946;2022-12-16T05:59:15;16.08;;;10.88;;
31210;SDS011;17836;50.948;3.946;2022-12-16T06:01:59;17.33;;;10.63;;
31210;SDS011;17836;50.948;3.946;2022-12-16T06:04:43;15.13;;;10.20;;
31210;SDS011;17836;50.948;3.946;2022-12-16T06:07:27;14.07;;;9.38;;
31210;SDS011;17836;50.948;3.946;2022-12-16T06:10:11;20.25;;;10.45;;
31210;SDS011;17836;50.948;3.946;2022-12-16T06:19:01;13.48;;;10.60;;
31210;SDS011;17836;50.948;3.946;2022-12-16T06:21:45;14.65;;;10.82;;
31210;SDS011;17836;50.948;3.946;2022-12-16T06:24:29;15.85;;;10.82;;
31210;SDS011;17836;50.948;3.946;2022-12-16T06:27:12;18.38;;;11.35;;
31210;SDS011;17836;50.948;3.946;2022-12-16T06:29:56;19.58;;;11.27;;
31210;SDS011;17836;50.948;3.946;2022-12-16T06:32:41;23.65;;;10.80;;
31210;SDS011;17836;50.948;3.946;2022-12-16T06:35:25;20.83;;;10.73;;
31210;SDS011;17836;50.948;3.946;2022-12-16T06:38:09;17.65;;;10.48;;
31210;SDS011;17836;50.948;3.946;2022-12-16T06:40:53;15.15;;;10.82;;
31210;SDS011;17836;50.948;3.946;2022-12-16T06:43:37;16.38;;;11.80;;
31210;SDS011;17836;50.948;3.946;2022-12-16T06:46:28;16.98;;;11.80;;
31210;SDS011;17836;50.948;3.946;2022-12-16T06:49:12;18.83;;;11.52;;
31210;SDS011;17836;50.948;3.946;2022-12-16T06:51:56;20.58;;;11.43;;
31210;SDS011;17836;50.948;3.946;2022-12-16T06:54:40;19.38;;;11.50;;
31210;SDS011;17836;50.948;3.946;2022-12-16T06:57:24;17.33;;;12.50;;
31210;SDS011;17836;50.948;3.946;2022-12-16T07:00:08;15.27;;;10.77;;
31210;SDS011;17836;50.948;3.946;2022-12-16T07:02:52;13.82;;;10.45;;
31210;SDS011;17836;50.948;3.946;2022-12-16T07:05:36;16.95;;;10.20;;
31210;SDS011;17836;50.948;3.946;2022-12-16T07:08:20;21.40;;;10.82;;
31210;SDS011;17836;50.948;3.946;2022-12-16T07:11:04;13.20;;;10.77;;
31210;SDS011;17836;50.948;3.946;2022-12-16T07:13:48;17.70;;;10.32;;
31210;SDS011;17836;50.948;3.946;2022-12-16T07:16:32;18.75;;;11.02;;
31210;SDS011;17836;50.948;3.946;2022-12-16T07:19:16;14.93;;;10.35;;
31210;SDS011;17836;50.948;3.946;2022-12-16T07:22:00;17.30;;;10.98;;
31210;SDS011;17836;50.948;3.946;2022-12-16T07:24:43;17.20;;;11.85;;
31210;SDS011;17836;50.948;3.946;2022-12-16T07:27:27;17.30;;;11.57;;
31210;SDS011;17836;50.948;3.946;2022-12-16T07:30:11;18.85;;;11.02;;
31210;SDS011;17836;50.948;3.946;2022-12-16T07:33:06;19.55;;;10.73;;
31210;SDS011;17836;50.948;3.946;2022-12-16T07:35:50;21.27;;;10.95;;
31210;SDS011;17836;50.948;3.946;2022-12-16T07:38:34;22.52;;;12.43;;
31210;SDS011;17836;50.948;3.946;2022-12-16T07:41:18;17.73;;;12.85;;
31210;SDS011;17836;50.948;3.946;2022-12-16T07:44:02;20.58;;;13.02;;
31210;SDS011;17836;50.948;3.946;2022-12-16T07:46:46;21.00;;;12.43;;
31210;SDS011;17836;50.948;3.946;2022-12-16T07:49:29;18.08;;;12.07;;
31210;SDS011;17836;50.948;3.946;2022-12-16T07:52:13;25.38;;;12.20;;
31210;SDS011;17836;50.948;3.946;2022-12-16T07:54:57;21.33;;;11.50;;
31210;SDS011;17836;50.948;3.946;2022-12-16T07:57:42;21.80;;;12.30;;
31210;SDS011;17836;50.948;3.946;2022-12-16T08:00:31;19.63;;;11.18;;
31210;SDS011;17836;50.948;3.946;2022-12-16T08:03:15;18.35;;;11.10;;
31210;SDS011;17836;50.948;3.946;2022-12-16T08:05:59;21.70;;;11.82;;
31210;SDS011;17836;50.948;3.946;2022-12-16T08:08:59;14.70;;;11.55;;
31210;SDS011;17836;50.948;3.946;2022-12-16T08:11:43;105.90;;;39.60;;
31210;SDS011;17836;50.948;3.946;2022-12-16T08:14:27;213.07;;;82.32;;
31210;SDS011;17836;50.948;3.946;2022-12-16T08:17:11;263.52;;;101.15;;
31210;SDS011;17836;50.948;3.946;2022-12-16T08:19:55;256.73;;;103.55;;
31210;SDS011;17836;50.948;3.946;2022-12-16T08:22:39;248.00;;;96.15;;
31210;SDS011;17836;50.948;3.946;2022-12-16T08:25:23;229.80;;;92.60;;
31210;SDS011;17836;50.948;3.946;2022-12-16T08:28:07;196.88;;;80.72;;
31210;SDS011;17836;50.948;3.946;2022-12-16T08:30:51;139.75;;;55.90;;
31210;SDS011;17836;50.948;3.946;2022-12-16T08:33:35;93.78;;;41.15;;
31210;SDS011;17836;50.948;3.946;2022-12-16T08:36:19;70.53;;;34.53;;
31210;SDS011;17836;50.948;3.946;2022-12-16T08:39:03;49.88;;;26.13;;
31210;SDS011;17836;50.948;3.946;2022-12-16T08:41:47;38.88;;;19.88;;
31210;SDS011;17836;50.948;3.946;2022-12-16T08:44:30;21.33;;;14.20;;
31210;SDS011;17836;50.948;3.946;2022-12-16T08:47:14;24.92;;;13.98;;
31210;SDS011;17836;50.948;3.946;2022-12-16T08:49:58;28.85;;;15.68;;
31210;SDS011;17836;50.948;3.946;2022-12-16T08:52:42;22.35;;;15.48;;
31210;SDS011;17836;50.948;3.946;2022-12-16T08:55:26;24.50;;;15.55;;
31210;SDS011;17836;50.948;3.946;2022-12-16T08:58:10;33.05;;;18.08;;
31210;SDS011;17836;50.948;3.946;2022-12-16T09:00:54;28.13;;;17.80;;
31210;SDS011;17836;50.948;3.946;2022-12-16T09:03:38;30.55;;;18.02;;
31210;SDS011;17836;50.948;3.946;2022-12-16T09:06:22;33.72;;;18.02;;
31210;SDS011;17836;50.948;3.946;2022-12-16T09:09:07;26.50;;;17.17;;
31210;SDS011;17836;50.948;3.946;2022-12-16T09:11:51;38.15;;;18.27;;
31210;SDS011;17836;50.948;3.946;2022-12-16T09:14:35;23.23;;;15.48;;
31210;SDS011;17836;50.948;3.946;2022-12-16T09:17:19;19.98;;;14.10;;
31210;SDS011;17836;50.948;3.946;2022-12-16T09:20:03;24.80;;;13.88;;
31210;SDS011;17836;50.948;3.946;2022-12-16T09:22:47;22.98;;;13.05;;
31210;SDS011;17836;50.948;3.946;2022-12-16T09:25:31;23.40;;;14.88;;
31210;SDS011;17836;50.948;3.946;2022-12-16T09:28:14;23.90;;;14.15;;
31210;SDS011;17836;50.948;3.946;2022-12-16T09:30:58;25.63;;;14.90;;
31210;SDS011;17836;50.948;3.946;2022-12-16T09:33:42;26.45;;;14.63;;
31210;SDS011;17836;50.948;3.946;2022-12-16T09:36:26;25.55;;;14.35;;
31210;SDS011;17836;50.948;3.946;2022-12-16T09:39:10;25.48;;;13.05;;
31210;SDS011;17836;50.948;3.946;2022-12-16T09:47:50;29.20;;;15.05;;
31210;SDS011;17836;50.948;3.946;2022-12-16T09:50:35;22.13;;;12.25;;
31210;SDS011;17836;50.948;3.946;2022-12-16T09:53:21;20.40;;;12.55;;
31210;SDS011;17836;50.948;3.946;2022-12-16T09:56:15;18.42;;;12.00;;
31210;SDS011;17836;50.948;3.946;2022-12-16T09:59:00;22.13;;;13.07;;
31210;SDS011;17836;50.948;3.946;2022-12-16T10:01:44;19.48;;;11.90;;
31210;SDS011;17836;50.948;3.946;2022-12-16T10:04:28;20.42;;;12.88;;
31210;SDS011;17836;50.948;3.946;2022-12-16T10:07:16;18.95;;;13.52;;
31210;SDS011;17836;50.948;3.946;2022-12-16T10:10:05;23.65;;;14.00;;
31210;SDS011;17836;50.948;3.946;2022-12-16T10:15:54;16.92;;;11.65;;
31210;SDS011;17836;50.948;3.946;2022-12-16T10:21:27;21.42;;;12.18;;
31210;SDS011;17836;50.948;3.946;2022-12-16T10:24:25;20.80;;;12.52;;
31210;SDS011;17836;50.948;3.946;2022-12-16T10:27:16;20.10;;;12.27;;
31210;SDS011;17836;50.948;3.946;2022-12-16T10:30:01;21.27;;;12.55;;
31210;SDS011;17836;50.948;3.946;2022-12-16T10:32:46;20.92;;;12.60;;
31210;SDS011;17836;50.948;3.946;2022-12-16T10:35:41;16.65;;;11.90;;
31210;SDS011;17836;50.948;3.946;2022-12-16T10:41:12;15.88;;;11.40;;
31210;SDS011;17836;50.948;3.946;2022-12-16T10:43:56;21.15;;;11.80;;
31210;SDS011;17836;50.948;3.946;2022-12-16T10:46:40;24.17;;;13.45;;
31210;SDS011;17836;50.948;3.946;2022-12-16T10:49:24;23.30;;;13.25;;
31210;SDS011;17836;50.948;3.946;2022-12-16T10:52:28;27.52;;;12.77;;
31210;SDS011;17836;50.948;3.946;2022-12-16T10:55:27;19.88;;;12.90;;
31210;SDS011;17836;50.948;3.946;2022-12-16T10:58:35;18.83;;;12.55;;
31210;SDS011;17836;50.948;3.946;2022-12-16T11:01:23;24.02;;;12.70;;
31210;SDS011;17836;50.948;3.946;2022-12-16T11:13:31;13.82;;;9.90;;
31210;SDS011;17836;50.948;3.946;2022-12-16T11:16:18;16.67;;;11.05;;
31210;SDS011;17836;50.948;3.946;2022-12-16T11:19:02;15.13;;;11.55;;
31210;SDS011;17836;50.948;3.946;2022-12-16T11:21:46;15.00;;;10.40;;
31210;SDS011;17836;50.948;3.946;2022-12-16T11:24:31;20.77;;;10.50;;
31210;SDS011;17836;50.948;3.946;2022-12-16T11:27:22;18.65;;;11.45;;
31210;SDS011;17836;50.948;3.946;2022-12-16T11:32:57;15.77;;;10.95;;
31210;SDS011;17836;50.948;3.946;2022-12-16T11:35:43;17.00;;;11.02;;
31210;SDS011;17836;50.948;3.946;2022-12-16T11:38:34;12.23;;;10.93;;
31210;SDS011;17836;50.948;3.946;2022-12-16T11:41:23;16.65;;;10.55;;
31210;SDS011;17836;50.948;3.946;2022-12-16T11:44:08;22.00;;;13.27;;
31210;SDS011;17836;50.948;3.946;2022-12-16T11:46:56;15.00;;;10.27;;
31210;SDS011;17836;50.948;3.946;2022-12-16T11:49:39;12.98;;;9.00;;
31210;SDS011;17836;50.948;3.946;2022-12-16T11:52:23;14.15;;;9.95;;
31210;SDS011;17836;50.948;3.946;2022-12-16T11:55:20;13.45;;;9.88;;
31210;SDS011;17836;50.948;3.946;2022-12-16T12:01:04;13.80;;;9.15;;
31210;SDS011;17836;50.948;3.946;2022-12-16T12:03:51;12.40;;;9.73;;
31210;SDS011;17836;50.948;3.946;2022-12-16T12:06:40;19.70;;;13.90;;
31210;SDS011;17836;50.948;3.946;2022-12-16T12:09:28;12.02;;;7.88;;
31210;SDS011;17836;50.948;3.946;2022-12-16T12:15:24;11.55;;;8.63;;
31210;SDS011;17836;50.948;3.946;2022-12-16T12:21:21;9.18;;;7.05;;
31210;SDS011;17836;50.948;3.946;2022-12-16T12:27:28;10.77;;;6.85;;
31210;SDS011;17836;50.948;3.946;2022-12-16T12:30:14;11.73;;;6.55;;
31210;SDS011;17836;50.948;3.946;2022-12-16T12:36:06;9.55;;;6.40;;
31210;SDS011;17836;50.948;3.946;2022-12-16T12:47:07;8.63;;;6.07;;
31210;SDS011;17836;50.948;3.946;2022-12-16T12:50:04;9.75;;;6.57;;
31210;SDS011;17836;50.948;3.946;2022-12-16T12:58:52;10.25;;;6.13;;
31210;SDS011;17836;50.948;3.946;2022-12-16T13:01:37;10.85;;;6.72;;
31210;SDS011;17836;50.948;3.946;2022-12-16T13:04:24;10.55;;;5.65;;
31210;SDS011;17836;50.948;3.946;2022-12-16T13:07:09;9.20;;;5.82;;
31210;SDS011;17836;50.948;3.946;2022-12-16T13:16:54;5.85;;;5.07;;
31210;SDS011;17836;50.948;3.946;2022-12-16T13:22:31;11.63;;;5.60;;
31210;SDS011;17836;50.948;3.946;2022-12-16T13:25:33;8.77;;;5.28;;
31210;SDS011;17836;50.948;3.946;2022-12-16T13:28:19;9.45;;;5.32;;
31210;SDS011;17836;50.948;3.946;2022-12-16T13:31:03;8.93;;;5.28;;
31210;SDS011;17836;50.948;3.946;2022-12-16T13:33:51;7.80;;;5.40;;
31210;SDS011;17836;50.948;3.946;2022-12-16T13:36:35;7.75;;;5.15;;
31210;SDS011;17836;50.948;3.946;2022-12-16T13:39:20;9.35;;;5.60;;
31210;SDS011;17836;50.948;3.946;2022-12-16T13:42:05;6.90;;;4.45;;
31210;SDS011;17836;50.948;3.946;2022-12-16T13:50:36;9.32;;;4.78;;
31210;SDS011;17836;50.948;3.946;2022-12-16T13:53:21;7.60;;;5.38;;
31210;SDS011;17836;50.948;3.946;2022-12-16T13:56:06;9.88;;;5.20;;
31210;SDS011;17836;50.948;3.946;2022-12-16T13:58:51;10.15;;;5.53;;
31210;SDS011;17836;50.948;3.946;2022-12-16T14:07:23;7.47;;;4.63;;
31210;SDS011;17836;50.948;3.946;2022-12-16T14:10:24;10.75;;;4.85;;
31210;SDS011;17836;50.948;3.946;2022-12-16T14:13:30;6.80;;;4.43;;
31210;SDS011;17836;50.948;3.946;2022-12-16T14:16:14;9.32;;;4.22;;
31210;SDS011;17836;50.948;3.946;2022-12-16T14:19:04;6.05;;;4.53;;
31210;SDS011;17836;50.948;3.946;2022-12-16T14:21:57;8.70;;;5.22;;
31210;SDS011;17836;50.948;3.946;2022-12-16T14:24:42;7.82;;;4.57;;
31210;SDS011;17836;50.948;3.946;2022-12-16T14:27:26;8.02;;;4.85;;
31210;SDS011;17836;50.948;3.946;2022-12-16T14:30:15;7.95;;;4.95;;
31210;SDS011;17836;50.948;3.946;2022-12-16T14:32:59;6.50;;;4.22;;
31210;SDS011;17836;50.948;3.946;2022-12-16T14:35:49;9.07;;;4.47;;
31210;SDS011;17836;50.948;3.946;2022-12-16T14:38:33;7.53;;;4.43;;
31210;SDS011;17836;50.948;3.946;2022-12-16T14:41:21;9.50;;;4.70;;
31210;SDS011;17836;50.948;3.946;2022-12-16T14:44:14;8.25;;;5.57;;
31210;SDS011;17836;50.948;3.946;2022-12-16T14:46:59;11.75;;;5.65;;
31210;SDS011;17836;50.948;3.946;2022-12-16T14:49:50;7.25;;;4.50;;
31210;SDS011;17836;50.948;3.946;2022-12-16T14:52:35;14.20;;;6.22;;
31210;SDS011;17836;50.948;3.946;2022-12-16T14:55:19;9.13;;;4.88;;
31210;SDS011;17836;50.948;3.946;2022-12-16T14:58:14;8.57;;;5.55;;
31210;SDS011;17836;50.948;3.946;2022-12-16T15:00:59;6.68;;;4.75;;
31210;SDS011;17836;50.948;3.946;2022-12-16T15:03:45;6.20;;;4.50;;
31210;SDS011;17836;50.948;3.946;2022-12-16T15:06:31;7.35;;;4.78;;
31210;SDS011;17836;50.948;3.946;2022-12-16T15:09:21;6.97;;;4.53;;
31210;SDS011;17836;50.948;3.946;2022-12-16T15:12:06;19.13;;;5.50;;
31210;SDS011;17836;50.948;3.946;2022-12-16T15:14:50;9.32;;;5.88;;
31210;SDS011;17836;50.948;3.946;2022-12-16T15:17:47;8.50;;;5.53;;
31210;SDS011;17836;50.948;3.946;2022-12-16T15:20:32;11.60;;;6.10;;
31210;SDS011;17836;50.948;3.946;2022-12-16T15:23:30;13.27;;;6.22;;
31210;SDS011;17836;50.948;3.946;2022-12-16T15:26:21;13.43;;;6.75;;
31210;SDS011;17836;50.948;3.946;2022-12-16T15:31:49;11.52;;;7.00;;
31210;SDS011;17836;50.948;3.946;2022-12-16T15:40:04;13.68;;;6.88;;
31210;SDS011;17836;50.948;3.946;2022-12-16T15:42:49;14.38;;;6.82;;
31210;SDS011;17836;50.948;3.946;2022-12-16T15:45:32;12.88;;;6.80;;
31210;SDS011;17836;50.948;3.946;2022-12-16T15:48:27;10.00;;;6.47;;
31210;SDS011;17836;50.948;3.946;2022-12-16T15:51:45;10.65;;;6.95;;
31210;SDS011;17836;50.948;3.946;2022-12-16T15:54:23;11.63;;;7.43;;
31210;SDS011;17836;50.948;3.946;2022-12-16T16:03:26;11.50;;;7.57;;
31210;SDS011;17836;50.948;3.946;2022-12-16T16:08:55;11.82;;;6.13;;
31210;SDS011;17836;50.948;3.946;2022-12-16T16:11:39;12.63;;;6.18;;
31210;SDS011;17836;50.948;3.946;2022-12-16T16:14:23;10.30;;;6.57;;
31210;SDS011;17836;50.948;3.946;2022-12-16T16:17:11;10.23;;;8.13;;
31210;SDS011;17836;50.948;3.946;2022-12-16T16:19:57;12.70;;;8.43;;
31210;SDS011;17836;50.948;3.946;2022-12-16T16:22:43;10.70;;;7.32;;
31210;SDS011;17836;50.948;3.946;2022-12-16T16:25:38;11.98;;;7.78;;
31210;SDS011;17836;50.948;3.946;2022-12-16T16:28:22;7.95;;;6.82;;
31210;SDS011;17836;50.948;3.946;2022-12-16T16:31:07;9.65;;;7.07;;
31210;SDS011;17836;50.948;3.946;2022-12-16T16:33:51;8.38;;;6.65;;
31210;SDS011;17836;50.948;3.946;2022-12-16T16:36:35;8.35;;;6.57;;
31210;SDS011;17836;50.948;3.946;2022-12-16T16:39:19;13.70;;;7.88;;
31210;SDS011;17836;50.948;3.946;2022-12-16T16:42:03;13.32;;;7.57;;
31210;SDS011;17836;50.948;3.946;2022-12-16T16:44:47;12.25;;;7.63;;
31210;SDS011;17836;50.948;3.946;2022-12-16T16:47:31;15.40;;;8.18;;
31210;SDS011;17836;50.948;3.946;2022-12-16T16:50:15;11.82;;;8.25;;
31210;SDS011;17836;50.948;3.946;2022-12-16T16:52:59;15.07;;;8.75;;
31210;SDS011;17836;50.948;3.946;2022-12-16T16:55:43;15.45;;;9.75;;
31210;SDS011;17836;50.948;3.946;2022-12-16T16:58:28;18.80;;;9.38;;
31210;SDS011;17836;50.948;3.946;2022-12-16T17:01:13;13.52;;;9.82;;
31210;SDS011;17836;50.948;3.946;2022-12-16T17:03:57;28.42;;;15.95;;
31210;SDS011;17836;50.948;3.946;2022-12-16T17:06:41;34.40;;;20.27;;
31210;SDS011;17836;50.948;3.946;2022-12-16T17:09:24;30.60;;;18.75;;
31210;SDS011;17836;50.948;3.946;2022-12-16T17:12:19;30.65;;;16.48;;
31210;SDS011;17836;50.948;3.946;2022-12-16T17:15:13;24.20;;;12.63;;
31210;SDS011;17836;50.948;3.946;2022-12-16T17:17:57;22.17;;;14.43;;
31210;SDS011;17836;50.948;3.946;2022-12-16T17:20:41;27.58;;;16.10;;
31210;SDS011;17836;50.948;3.946;2022-12-16T17:23:25;27.75;;;15.57;;
31210;SDS011;17836;50.948;3.946;2022-12-16T17:26:09;27.95;;;15.57;;
31210;SDS011;17836;50.948;3.946;2022-12-16T17:28:53;27.85;;;13.43;;
31210;SDS011;17836;50.948;3.946;2022-12-16T17:31:37;20.58;;;13.52;;
31210;SDS011;17836;50.948;3.946;2022-12-16T17:34:21;19.80;;;13.43;;
31210;SDS011;17836;50.948;3.946;2022-12-16T17:37:05;23.02;;;14.40;;
31210;SDS011;17836;50.948;3.946;2022-12-16T17:39:49;23.80;;;15.25;;
31210;SDS011;17836;50.948;3.946;2022-12-16T17:42:33;33.40;;;16.55;;
31210;SDS011;17836;50.948;3.946;2022-12-16T17:45:17;27.73;;;15.40;;
31210;SDS011;17836;50.948;3.946;2022-12-16T17:48:02;33.97;;;17.33;;
31210;SDS011;17836;50.948;3.946;2022-12-16T17:50:45;29.77;;;16.13;;
31210;SDS011;17836;50.948;3.946;2022-12-16T17:53:30;30.70;;;17.08;;
31210;SDS011;17836;50.948;3.946;2022-12-16T17:56:31;32.83;;;16.35;;
31210;SDS011;17836;50.948;3.946;2022-12-16T17:59:15;31.10;;;18.75;;
31210;SDS011;17836;50.948;3.946;2022-12-16T18:01:58;28.38;;;18.40;;